sensor_id;sensor_type;location;lat;lon;timestamp;P1;durP1;ratioP1;P2;durP2;ratioP2
19747;SDS011;10032;51.386;12.516;2024-01-06T00:02:07;3.20;;;2.67;;
19747;SDS011;10032;51.386;12.516;2024-01-06T00:04:32;3.70;;;2.50;;
19747;SDS011;10032;51.386;12.516;2024-01-06T00:06:58;3.73;;;2.60;;
19747;SDS011;10032;51.386;12.516;2024-01-06T00:09:23;3.37;;;2.60;;
19747;SDS011;10032;51.386;12.516;2024-01-06T00:11:48;3.07;;;2.37;;
19747;SDS011;10032;51.386;12.516;2024-01-06T00:14:14;3.67;;;2.00;;
19747;SDS011;10032;51.386;12.516;2024-01-06T00:16:40;3.83;;;3.00;;
19747;SDS011;10032;51.386;12.516;2024-01-06T00:19:05;3.53;;;2.33;;
19747;SDS011;10032;51.386;12.516;2024-01-06T00:21:30;2.97;;;2.27;;
19747;SDS011;10032;51.386;12.516;2024-01-06T00:23:56;3.47;;;3.17;;
19747;SDS011;10032;51.386;12.516;2024-01-06T00:26:21;3.10;;;2.60;;
19747;SDS011;10032;51.386;12.516;2024-01-06T00:28:47;3.67;;;2.30;;
19747;SDS011;10032;51.386;12.516;2024-01-06T00:31:14;3.20;;;2.60;;
19747;SDS011;10032;51.386;12.516;2024-01-06T00:33:42;2.93;;;2.57;;
19747;SDS011;10032;51.386;12.516;2024-01-06T00:36:07;3.33;;;2.40;;
19747;SDS011;10032;51.386;12.516;2024-01-06T00:38:33;2.77;;;2.23;;
19747;SDS011;10032;51.386;12.516;2024-01-06T00:41:00;4.13;;;2.57;;
19747;SDS011;10032;51.386;12.516;2024-01-06T00:43:25;4.43;;;2.47;;
19747;SDS011;10032;51.386;12.516;2024-01-06T00:45:51;3.83;;;2.43;;
19747;SDS011;10032;51.386;12.516;2024-01-06T00:48:16;5.60;;;2.87;;
19747;SDS011;10032;51.386;12.516;2024-01-06T00:50:41;3.20;;;2.30;;
19747;SDS011;10032;51.386;12.516;2024-01-06T00:53:07;4.53;;;3.00;;
19747;SDS011;10032;51.386;12.516;2024-01-06T00:55:32;3.73;;;2.93;;
19747;SDS011;10032;51.386;12.516;2024-01-06T00:57:57;4.50;;;2.40;;
19747;SDS011;10032;51.386;12.516;2024-01-06T01:00:23;4.13;;;2.67;;
19747;SDS011;10032;51.386;12.516;2024-01-06T01:02:48;3.40;;;2.73;;
19747;SDS011;10032;51.386;12.516;2024-01-06T01:05:14;3.63;;;2.73;;
19747;SDS011;10032;51.386;12.516;2024-01-06T01:07:39;3.70;;;2.17;;
19747;SDS011;10032;51.386;12.516;2024-01-06T01:10:04;3.20;;;2.80;;
19747;SDS011;10032;51.386;12.516;2024-01-06T01:12:31;3.70;;;2.77;;
19747;SDS011;10032;51.386;12.516;2024-01-06T01:14:56;2.70;;;2.50;;
19747;SDS011;10032;51.386;12.516;2024-01-06T01:17:22;2.57;;;2.23;;
19747;SDS011;10032;51.386;12.516;2024-01-06T01:19:47;3.10;;;2.43;;
19747;SDS011;10032;51.386;12.516;2024-01-06T01:22:12;2.33;;;2.13;;
19747;SDS011;10032;51.386;12.516;2024-01-06T01:24:38;3.07;;;2.03;;
19747;SDS011;10032;51.386;12.516;2024-01-06T01:27:04;5.03;;;2.83;;
19747;SDS011;10032;51.386;12.516;2024-01-06T01:29:29;2.63;;;2.20;;
19747;SDS011;10032;51.386;12.516;2024-01-06T01:31:55;3.90;;;2.70;;
19747;SDS011;10032;51.386;12.516;2024-01-06T01:34:20;4.23;;;2.33;;
19747;SDS011;10032;51.386;12.516;2024-01-06T01:36:45;3.00;;;2.70;;
19747;SDS011;10032;51.386;12.516;2024-01-06T01:39:11;2.83;;;2.53;;
19747;SDS011;10032;51.386;12.516;2024-01-06T01:41:36;3.83;;;2.47;;
19747;SDS011;10032;51.386;12.516;2024-01-06T01:44:03;4.27;;;2.50;;
19747;SDS011;10032;51.386;12.516;2024-01-06T01:46:29;2.47;;;2.07;;
19747;SDS011;10032;51.386;12.516;2024-01-06T01:48:55;2.53;;;2.33;;
19747;SDS011;10032;51.386;12.516;2024-01-06T01:51:22;2.90;;;2.70;;
19747;SDS011;10032;51.386;12.516;2024-01-06T01:53:49;3.43;;;2.60;;
19747;SDS011;10032;51.386;12.516;2024-01-06T01:56:15;2.33;;;2.00;;
19747;SDS011;10032;51.386;12.516;2024-01-06T01:58:41;4.07;;;2.50;;
19747;SDS011;10032;51.386;12.516;2024-01-06T02:01:07;3.83;;;2.83;;
19747;SDS011;10032;51.386;12.516;2024-01-06T02:03:33;3.27;;;2.97;;
19747;SDS011;10032;51.386;12.516;2024-01-06T02:06:00;2.50;;;2.30;;
19747;SDS011;10032;51.386;12.516;2024-01-06T02:08:25;3.90;;;2.40;;
19747;SDS011;10032;51.386;12.516;2024-01-06T02:10:52;4.43;;;3.07;;
19747;SDS011;10032;51.386;12.516;2024-01-06T02:13:19;3.23;;;2.43;;
19747;SDS011;10032;51.386;12.516;2024-01-06T02:15:45;3.07;;;2.30;;
19747;SDS011;10032;51.386;12.516;2024-01-06T02:18:10;2.70;;;2.50;;
19747;SDS011;10032;51.386;12.516;2024-01-06T02:20:36;2.73;;;2.23;;
19747;SDS011;10032;51.386;12.516;2024-01-06T02:23:02;2.43;;;2.23;;
19747;SDS011;10032;51.386;12.516;2024-01-06T02:25:27;2.90;;;2.20;;
19747;SDS011;10032;51.386;12.516;2024-01-06T02:27:54;2.93;;;2.20;;
19747;SDS011;10032;51.386;12.516;2024-01-06T02:30:19;2.83;;;2.33;;
19747;SDS011;10032;51.386;12.516;2024-01-06T02:32:45;2.53;;;2.30;;
19747;SDS011;10032;51.386;12.516;2024-01-06T02:35:10;2.97;;;2.60;;
19747;SDS011;10032;51.386;12.516;2024-01-06T02:37:36;2.90;;;2.40;;
19747;SDS011;10032;51.386;12.516;2024-01-06T02:40:01;2.70;;;2.40;;
19747;SDS011;10032;51.386;12.516;2024-01-06T02:42:27;3.03;;;2.33;;
19747;SDS011;10032;51.386;12.516;2024-01-06T02:44:52;3.27;;;2.47;;
19747;SDS011;10032;51.386;12.516;2024-01-06T02:47:18;2.60;;;2.40;;
19747;SDS011;10032;51.386;12.516;2024-01-06T02:49:43;3.13;;;2.83;;
19747;SDS011;10032;51.386;12.516;2024-01-06T02:52:08;3.50;;;2.70;;
19747;SDS011;10032;51.386;12.516;2024-01-06T02:54:34;3.07;;;2.33;;
19747;SDS011;10032;51.386;12.516;2024-01-06T02:56:59;4.40;;;2.83;;
19747;SDS011;10032;51.386;12.516;2024-01-06T02:59:24;2.60;;;2.40;;
19747;SDS011;10032;51.386;12.516;2024-01-06T03:01:50;3.77;;;2.90;;
19747;SDS011;10032;51.386;12.516;2024-01-06T03:04:15;2.63;;;2.43;;
19747;SDS011;10032;51.386;12.516;2024-01-06T03:06:41;4.07;;;2.93;;
19747;SDS011;10032;51.386;12.516;2024-01-06T03:09:08;3.87;;;2.40;;
19747;SDS011;10032;51.386;12.516;2024-01-06T03:11:34;4.70;;;3.03;;
19747;SDS011;10032;51.386;12.516;2024-01-06T03:13:59;2.33;;;2.13;;
19747;SDS011;10032;51.386;12.516;2024-01-06T03:16:25;3.13;;;2.80;;
19747;SDS011;10032;51.386;12.516;2024-01-06T03:18:50;4.17;;;3.53;;
19747;SDS011;10032;51.386;12.516;2024-01-06T03:21:19;3.73;;;2.90;;
19747;SDS011;10032;51.386;12.516;2024-01-06T03:23:45;3.87;;;2.77;;
19747;SDS011;10032;51.386;12.516;2024-01-06T03:26:11;2.93;;;2.60;;
19747;SDS011;10032;51.386;12.516;2024-01-06T03:28:37;2.53;;;2.30;;
19747;SDS011;10032;51.386;12.516;2024-01-06T03:31:02;4.00;;;3.17;;
19747;SDS011;10032;51.386;12.516;2024-01-06T03:33:28;3.43;;;2.97;;
19747;SDS011;10032;51.386;12.516;2024-01-06T03:35:53;3.03;;;2.70;;
19747;SDS011;10032;51.386;12.516;2024-01-06T03:38:19;2.87;;;2.40;;
19747;SDS011;10032;51.386;12.516;2024-01-06T03:40:44;6.73;;;3.33;;
19747;SDS011;10032;51.386;12.516;2024-01-06T03:43:09;4.20;;;2.93;;
19747;SDS011;10032;51.386;12.516;2024-01-06T03:45:35;6.00;;;2.93;;
19747;SDS011;10032;51.386;12.516;2024-01-06T03:48:00;5.37;;;4.10;;
19747;SDS011;10032;51.386;12.516;2024-01-06T03:50:25;2.80;;;2.23;;
19747;SDS011;10032;51.386;12.516;2024-01-06T03:52:51;3.57;;;2.93;;
19747;SDS011;10032;51.386;12.516;2024-01-06T03:55:16;3.10;;;2.27;;
19747;SDS011;10032;51.386;12.516;2024-01-06T03:57:42;2.50;;;2.33;;
19747;SDS011;10032;51.386;12.516;2024-01-06T04:00:08;2.63;;;2.47;;
19747;SDS011;10032;51.386;12.516;2024-01-06T04:02:33;2.60;;;2.40;;
19747;SDS011;10032;51.386;12.516;2024-01-06T04:04:59;3.60;;;2.90;;
19747;SDS011;10032;51.386;12.516;2024-01-06T04:07:24;2.87;;;2.30;;
19747;SDS011;10032;51.386;12.516;2024-01-06T04:09:49;3.70;;;3.10;;
19747;SDS011;10032;51.386;12.516;2024-01-06T04:12:15;3.83;;;2.33;;
19747;SDS011;10032;51.386;12.516;2024-01-06T04:14:40;5.30;;;2.40;;
19747;SDS011;10032;51.386;12.516;2024-01-06T04:17:06;2.47;;;2.27;;
19747;SDS011;10032;51.386;12.516;2024-01-06T04:19:31;3.03;;;2.60;;
19747;SDS011;10032;51.386;12.516;2024-01-06T04:21:57;3.37;;;2.57;;
19747;SDS011;10032;51.386;12.516;2024-01-06T04:24:22;6.00;;;2.57;;
19747;SDS011;10032;51.386;12.516;2024-01-06T04:26:48;3.47;;;2.37;;
19747;SDS011;10032;51.386;12.516;2024-01-06T04:29:14;3.67;;;3.00;;
19747;SDS011;10032;51.386;12.516;2024-01-06T04:31:40;3.87;;;2.83;;
19747;SDS011;10032;51.386;12.516;2024-01-06T04:34:06;3.43;;;2.63;;
19747;SDS011;10032;51.386;12.516;2024-01-06T04:36:31;3.73;;;3.37;;
19747;SDS011;10032;51.386;12.516;2024-01-06T04:38:57;3.73;;;3.00;;
19747;SDS011;10032;51.386;12.516;2024-01-06T04:41:22;4.20;;;3.27;;
19747;SDS011;10032;51.386;12.516;2024-01-06T04:43:47;4.07;;;2.60;;
19747;SDS011;10032;51.386;12.516;2024-01-06T04:46:13;3.73;;;2.83;;
19747;SDS011;10032;51.386;12.516;2024-01-06T04:48:40;3.80;;;2.97;;
19747;SDS011;10032;51.386;12.516;2024-01-06T04:51:05;5.37;;;2.97;;
19747;SDS011;10032;51.386;12.516;2024-01-06T04:53:34;5.03;;;2.50;;
19747;SDS011;10032;51.386;12.516;2024-01-06T04:56:00;4.77;;;2.40;;
19747;SDS011;10032;51.386;12.516;2024-01-06T04:58:26;4.67;;;3.50;;
19747;SDS011;10032;51.386;12.516;2024-01-06T05:00:51;3.13;;;2.60;;
19747;SDS011;10032;51.386;12.516;2024-01-06T05:03:17;3.20;;;2.83;;
19747;SDS011;10032;51.386;12.516;2024-01-06T05:05:43;3.67;;;3.00;;
19747;SDS011;10032;51.386;12.516;2024-01-06T05:08:08;5.40;;;3.53;;
19747;SDS011;10032;51.386;12.516;2024-01-06T05:10:34;4.77;;;2.80;;
19747;SDS011;10032;51.386;12.516;2024-01-06T05:12:59;3.67;;;2.60;;
19747;SDS011;10032;51.386;12.516;2024-01-06T05:15:25;2.57;;;2.37;;
19747;SDS011;10032;51.386;12.516;2024-01-06T05:17:50;3.67;;;2.80;;
19747;SDS011;10032;51.386;12.516;2024-01-06T05:20:15;3.67;;;2.93;;
19747;SDS011;10032;51.386;12.516;2024-01-06T05:22:41;3.17;;;2.53;;
19747;SDS011;10032;51.386;12.516;2024-01-06T05:25:06;4.13;;;3.00;;
19747;SDS011;10032;51.386;12.516;2024-01-06T05:27:32;4.37;;;3.20;;
19747;SDS011;10032;51.386;12.516;2024-01-06T05:29:57;3.43;;;2.63;;
19747;SDS011;10032;51.386;12.516;2024-01-06T05:32:23;4.23;;;3.43;;
19747;SDS011;10032;51.386;12.516;2024-01-06T05:34:48;3.50;;;3.07;;
19747;SDS011;10032;51.386;12.516;2024-01-06T05:37:14;5.17;;;3.33;;
19747;SDS011;10032;51.386;12.516;2024-01-06T05:39:39;4.37;;;3.27;;
19747;SDS011;10032;51.386;12.516;2024-01-06T05:42:05;4.73;;;3.30;;
19747;SDS011;10032;51.386;12.516;2024-01-06T05:44:34;4.70;;;2.73;;
19747;SDS011;10032;51.386;12.516;2024-01-06T05:47:01;4.60;;;2.97;;
19747;SDS011;10032;51.386;12.516;2024-01-06T05:49:26;4.40;;;3.30;;
19747;SDS011;10032;51.386;12.516;2024-01-06T05:51:51;3.40;;;3.10;;
19747;SDS011;10032;51.386;12.516;2024-01-06T05:54:17;4.20;;;2.67;;
19747;SDS011;10032;51.386;12.516;2024-01-06T05:56:42;4.40;;;3.63;;
19747;SDS011;10032;51.386;12.516;2024-01-06T05:59:07;4.90;;;3.40;;
19747;SDS011;10032;51.386;12.516;2024-01-06T06:01:33;3.90;;;2.80;;
19747;SDS011;10032;51.386;12.516;2024-01-06T06:03:58;3.97;;;3.20;;
19747;SDS011;10032;51.386;12.516;2024-01-06T06:06:24;3.13;;;2.70;;
19747;SDS011;10032;51.386;12.516;2024-01-06T06:08:49;5.43;;;3.83;;
19747;SDS011;10032;51.386;12.516;2024-01-06T06:11:15;4.10;;;3.00;;
19747;SDS011;10032;51.386;12.516;2024-01-06T06:13:40;4.40;;;3.27;;
19747;SDS011;10032;51.386;12.516;2024-01-06T06:16:06;4.50;;;3.67;;
19747;SDS011;10032;51.386;12.516;2024-01-06T06:18:34;4.17;;;3.40;;
19747;SDS011;10032;51.386;12.516;2024-01-06T06:21:00;4.33;;;3.20;;
19747;SDS011;10032;51.386;12.516;2024-01-06T06:23:26;4.53;;;3.20;;
19747;SDS011;10032;51.386;12.516;2024-01-06T06:25:52;3.57;;;3.07;;
19747;SDS011;10032;51.386;12.516;2024-01-06T06:28:18;3.53;;;3.23;;
19747;SDS011;10032;51.386;12.516;2024-01-06T06:30:43;4.20;;;3.10;;
19747;SDS011;10032;51.386;12.516;2024-01-06T06:33:08;4.10;;;3.50;;
19747;SDS011;10032;51.386;12.516;2024-01-06T06:35:34;3.87;;;2.90;;
19747;SDS011;10032;51.386;12.516;2024-01-06T06:37:59;4.20;;;3.03;;
19747;SDS011;10032;51.386;12.516;2024-01-06T06:40:25;5.00;;;3.73;;
19747;SDS011;10032;51.386;12.516;2024-01-06T06:42:50;4.73;;;3.77;;
19747;SDS011;10032;51.386;12.516;2024-01-06T06:45:15;4.87;;;3.30;;
19747;SDS011;10032;51.386;12.516;2024-01-06T06:47:41;4.83;;;3.90;;
19747;SDS011;10032;51.386;12.516;2024-01-06T06:50:06;4.53;;;3.37;;
19747;SDS011;10032;51.386;12.516;2024-01-06T06:52:32;5.13;;;3.80;;
19747;SDS011;10032;51.386;12.516;2024-01-06T06:54:57;5.63;;;3.60;;
19747;SDS011;10032;51.386;12.516;2024-01-06T06:57:23;4.87;;;3.33;;
19747;SDS011;10032;51.386;12.516;2024-01-06T06:59:49;5.97;;;3.50;;
19747;SDS011;10032;51.386;12.516;2024-01-06T07:02:14;6.13;;;3.90;;
19747;SDS011;10032;51.386;12.516;2024-01-06T07:04:40;5.90;;;3.97;;
19747;SDS011;10032;51.386;12.516;2024-01-06T07:07:05;4.60;;;3.70;;
19747;SDS011;10032;51.386;12.516;2024-01-06T07:09:31;3.70;;;3.40;;
19747;SDS011;10032;51.386;12.516;2024-01-06T07:11:56;3.77;;;3.33;;
19747;SDS011;10032;51.386;12.516;2024-01-06T07:14:22;3.83;;;2.80;;
19747;SDS011;10032;51.386;12.516;2024-01-06T07:16:47;4.13;;;3.63;;
19747;SDS011;10032;51.386;12.516;2024-01-06T07:19:13;5.27;;;3.77;;
19747;SDS011;10032;51.386;12.516;2024-01-06T07:21:38;4.63;;;3.80;;
19747;SDS011;10032;51.386;12.516;2024-01-06T07:24:04;4.63;;;3.70;;
19747;SDS011;10032;51.386;12.516;2024-01-06T07:26:29;3.80;;;3.43;;
19747;SDS011;10032;51.386;12.516;2024-01-06T07:28:55;6.03;;;3.40;;
19747;SDS011;10032;51.386;12.516;2024-01-06T07:31:20;5.43;;;3.67;;
19747;SDS011;10032;51.386;12.516;2024-01-06T07:33:45;7.40;;;4.20;;
19747;SDS011;10032;51.386;12.516;2024-01-06T07:36:11;5.23;;;4.00;;
19747;SDS011;10032;51.386;12.516;2024-01-06T07:38:37;6.33;;;3.60;;
19747;SDS011;10032;51.386;12.516;2024-01-06T07:41:02;5.97;;;4.07;;
19747;SDS011;10032;51.386;12.516;2024-01-06T07:43:29;3.93;;;3.60;;
19747;SDS011;10032;51.386;12.516;2024-01-06T07:45:55;6.13;;;3.80;;
19747;SDS011;10032;51.386;12.516;2024-01-06T07:48:20;4.93;;;3.87;;
19747;SDS011;10032;51.386;12.516;2024-01-06T07:50:46;3.93;;;3.53;;
19747;SDS011;10032;51.386;12.516;2024-01-06T07:53:11;4.47;;;3.00;;
19747;SDS011;10032;51.386;12.516;2024-01-06T07:55:38;4.73;;;3.83;;
19747;SDS011;10032;51.386;12.516;2024-01-06T07:58:04;5.20;;;4.67;;
19747;SDS011;10032;51.386;12.516;2024-01-06T08:00:29;6.27;;;3.90;;
19747;SDS011;10032;51.386;12.516;2024-01-06T08:02:55;6.97;;;4.47;;
19747;SDS011;10032;51.386;12.516;2024-01-06T08:05:21;6.37;;;4.80;;
19747;SDS011;10032;51.386;12.516;2024-01-06T08:07:46;5.23;;;4.50;;
19747;SDS011;10032;51.386;12.516;2024-01-06T08:10:11;4.90;;;4.10;;
19747;SDS011;10032;51.386;12.516;2024-01-06T08:12:37;7.33;;;5.00;;
19747;SDS011;10032;51.386;12.516;2024-01-06T08:15:03;8.30;;;4.53;;
19747;SDS011;10032;51.386;12.516;2024-01-06T08:17:29;5.63;;;4.87;;
19747;SDS011;10032;51.386;12.516;2024-01-06T08:19:55;6.93;;;5.47;;
19747;SDS011;10032;51.386;12.516;2024-01-06T08:22:20;7.33;;;5.57;;
19747;SDS011;10032;51.386;12.516;2024-01-06T08:24:45;8.23;;;6.00;;
19747;SDS011;10032;51.386;12.516;2024-01-06T08:27:12;7.70;;;5.20;;
19747;SDS011;10032;51.386;12.516;2024-01-06T08:29:37;5.73;;;4.80;;
19747;SDS011;10032;51.386;12.516;2024-01-06T08:32:03;7.97;;;5.70;;
19747;SDS011;10032;51.386;12.516;2024-01-06T08:34:29;9.47;;;6.67;;
19747;SDS011;10032;51.386;12.516;2024-01-06T08:36:55;9.33;;;6.33;;
19747;SDS011;10032;51.386;12.516;2024-01-06T08:39:20;9.03;;;7.03;;
19747;SDS011;10032;51.386;12.516;2024-01-06T08:41:47;9.50;;;5.80;;
19747;SDS011;10032;51.386;12.516;2024-01-06T08:44:13;8.10;;;5.90;;
19747;SDS011;10032;51.386;12.516;2024-01-06T08:46:38;7.03;;;5.07;;
19747;SDS011;10032;51.386;12.516;2024-01-06T08:49:04;7.80;;;6.43;;
19747;SDS011;10032;51.386;12.516;2024-01-06T08:51:30;10.23;;;6.53;;
19747;SDS011;10032;51.386;12.516;2024-01-06T08:53:56;13.23;;;9.20;;
19747;SDS011;10032;51.386;12.516;2024-01-06T08:56:21;7.07;;;4.80;;
19747;SDS011;10032;51.386;12.516;2024-01-06T08:58:47;4.63;;;4.10;;
19747;SDS011;10032;51.386;12.516;2024-01-06T09:01:12;6.60;;;4.23;;
19747;SDS011;10032;51.386;12.516;2024-01-06T09:03:38;5.37;;;3.97;;
19747;SDS011;10032;51.386;12.516;2024-01-06T09:06:04;5.70;;;4.43;;
19747;SDS011;10032;51.386;12.516;2024-01-06T09:08:30;5.87;;;4.87;;
19747;SDS011;10032;51.386;12.516;2024-01-06T09:10:55;5.90;;;3.90;;
19747;SDS011;10032;51.386;12.516;2024-01-06T09:13:22;6.40;;;3.80;;
19747;SDS011;10032;51.386;12.516;2024-01-06T09:15:48;5.93;;;4.23;;
19747;SDS011;10032;51.386;12.516;2024-01-06T09:18:14;6.70;;;4.40;;
19747;SDS011;10032;51.386;12.516;2024-01-06T09:20:39;5.73;;;4.13;;
19747;SDS011;10032;51.386;12.516;2024-01-06T09:23:04;4.80;;;3.87;;
19747;SDS011;10032;51.386;12.516;2024-01-06T09:25:30;4.90;;;3.80;;
19747;SDS011;10032;51.386;12.516;2024-01-06T09:27:55;5.87;;;4.10;;
19747;SDS011;10032;51.386;12.516;2024-01-06T09:30:21;4.30;;;3.60;;
19747;SDS011;10032;51.386;12.516;2024-01-06T09:32:46;6.90;;;4.50;;
19747;SDS011;10032;51.386;12.516;2024-01-06T09:35:11;4.50;;;3.73;;
19747;SDS011;10032;51.386;12.516;2024-01-06T09:37:37;5.10;;;4.23;;
19747;SDS011;10032;51.386;12.516;2024-01-06T09:40:02;8.53;;;5.07;;
19747;SDS011;10032;51.386;12.516;2024-01-06T09:42:28;5.90;;;4.73;;
19747;SDS011;10032;51.386;12.516;2024-01-06T09:44:54;7.30;;;5.67;;
19747;SDS011;10032;51.386;12.516;2024-01-06T09:47:19;7.80;;;5.47;;
19747;SDS011;10032;51.386;12.516;2024-01-06T09:49:50;6.20;;;5.33;;
19747;SDS011;10032;51.386;12.516;2024-01-06T09:52:20;7.80;;;5.27;;
19747;SDS011;10032;51.386;12.516;2024-01-06T09:54:53;7.93;;;6.33;;
19747;SDS011;10032;51.386;12.516;2024-01-06T09:57:20;7.80;;;5.47;;
19747;SDS011;10032;51.386;12.516;2024-01-06T09:59:46;8.50;;;6.83;;
19747;SDS011;10032;51.386;12.516;2024-01-06T10:02:15;7.60;;;5.50;;
19747;SDS011;10032;51.386;12.516;2024-01-06T10:04:42;8.63;;;6.20;;
19747;SDS011;10032;51.386;12.516;2024-01-06T10:07:09;10.53;;;7.37;;
19747;SDS011;10032;51.386;12.516;2024-01-06T10:09:37;8.10;;;6.23;;
19747;SDS011;10032;51.386;12.516;2024-01-06T10:12:03;6.23;;;4.87;;
19747;SDS011;10032;51.386;12.516;2024-01-06T10:14:28;9.60;;;6.37;;
19747;SDS011;10032;51.386;12.516;2024-01-06T10:16:54;14.07;;;6.77;;
19747;SDS011;10032;51.386;12.516;2024-01-06T10:19:19;8.10;;;6.50;;
19747;SDS011;10032;51.386;12.516;2024-01-06T10:21:45;8.87;;;6.07;;
19747;SDS011;10032;51.386;12.516;2024-01-06T10:24:10;7.37;;;5.87;;
19747;SDS011;10032;51.386;12.516;2024-01-06T10:26:36;9.00;;;6.37;;
19747;SDS011;10032;51.386;12.516;2024-01-06T10:29:02;8.10;;;5.93;;
19747;SDS011;10032;51.386;12.516;2024-01-06T10:31:29;9.50;;;7.60;;
19747;SDS011;10032;51.386;12.516;2024-01-06T10:33:54;9.37;;;5.87;;
19747;SDS011;10032;51.386;12.516;2024-01-06T10:36:21;10.37;;;6.73;;
19747;SDS011;10032;51.386;12.516;2024-01-06T10:38:50;9.83;;;6.70;;
19747;SDS011;10032;51.386;12.516;2024-01-06T10:41:17;8.67;;;5.87;;
19747;SDS011;10032;51.386;12.516;2024-01-06T10:43:44;7.80;;;6.10;;
19747;SDS011;10032;51.386;12.516;2024-01-06T10:46:12;9.03;;;6.67;;
19747;SDS011;10032;51.386;12.516;2024-01-06T10:48:39;6.20;;;5.33;;
19747;SDS011;10032;51.386;12.516;2024-01-06T10:51:07;8.70;;;6.70;;
19747;SDS011;10032;51.386;12.516;2024-01-06T10:53:34;8.47;;;5.33;;
19747;SDS011;10032;51.386;12.516;2024-01-06T10:56:07;6.50;;;5.70;;
19747;SDS011;10032;51.386;12.516;2024-01-06T10:58:34;9.90;;;6.60;;
19747;SDS011;10032;51.386;12.516;2024-01-06T11:01:10;7.97;;;6.30;;
19747;SDS011;10032;51.386;12.516;2024-01-06T11:03:37;9.57;;;6.40;;
19747;SDS011;10032;51.386;12.516;2024-01-06T11:06:06;8.23;;;5.90;;
19747;SDS011;10032;51.386;12.516;2024-01-06T11:08:36;7.70;;;5.97;;
19747;SDS011;10032;51.386;12.516;2024-01-06T11:11:22;7.60;;;5.90;;
19747;SDS011;10032;51.386;12.516;2024-01-06T11:13:49;7.40;;;5.90;;
19747;SDS011;10032;51.386;12.516;2024-01-06T11:16:33;8.17;;;5.77;;
19747;SDS011;10032;51.386;12.516;2024-01-06T11:18:59;8.07;;;5.60;;
19747;SDS011;10032;51.386;12.516;2024-01-06T11:21:25;8.93;;;6.33;;
19747;SDS011;10032;51.386;12.516;2024-01-06T11:26:31;8.47;;;6.47;;
19747;SDS011;10032;51.386;12.516;2024-01-06T11:28:57;8.43;;;6.20;;
19747;SDS011;10032;51.386;12.516;2024-01-06T11:31:23;9.43;;;6.00;;
19747;SDS011;10032;51.386;12.516;2024-01-06T11:33:55;9.70;;;6.37;;
19747;SDS011;10032;51.386;12.516;2024-01-06T11:36:20;9.90;;;6.93;;
19747;SDS011;10032;51.386;12.516;2024-01-06T11:38:47;8.63;;;6.07;;
19747;SDS011;10032;51.386;12.516;2024-01-06T11:44:20;10.10;;;7.37;;
19747;SDS011;10032;51.386;12.516;2024-01-06T11:46:45;11.33;;;7.23;;
19747;SDS011;10032;51.386;12.516;2024-01-06T11:49:12;12.13;;;8.40;;
19747;SDS011;10032;51.386;12.516;2024-01-06T11:51:41;17.57;;;8.40;;
19747;SDS011;10032;51.386;12.516;2024-01-06T11:54:06;10.87;;;6.83;;
19747;SDS011;10032;51.386;12.516;2024-01-06T11:56:32;9.97;;;7.00;;
19747;SDS011;10032;51.386;12.516;2024-01-06T11:58:57;10.40;;;6.53;;
19747;SDS011;10032;51.386;12.516;2024-01-06T12:01:23;9.43;;;7.23;;
19747;SDS011;10032;51.386;12.516;2024-01-06T12:03:53;10.53;;;7.70;;
19747;SDS011;10032;51.386;12.516;2024-01-06T12:06:20;10.97;;;6.20;;
19747;SDS011;10032;51.386;12.516;2024-01-06T12:08:48;9.97;;;6.97;;
19747;SDS011;10032;51.386;12.516;2024-01-06T12:11:16;12.27;;;8.63;;
19747;SDS011;10032;51.386;12.516;2024-01-06T12:13:43;12.63;;;9.20;;
19747;SDS011;10032;51.386;12.516;2024-01-06T12:16:09;10.80;;;7.33;;
19747;SDS011;10032;51.386;12.516;2024-01-06T12:18:34;11.67;;;8.07;;
19747;SDS011;10032;51.386;12.516;2024-01-06T12:21:00;11.80;;;7.27;;
19747;SDS011;10032;51.386;12.516;2024-01-06T12:23:25;12.73;;;8.67;;
19747;SDS011;10032;51.386;12.516;2024-01-06T12:25:53;12.57;;;8.17;;
19747;SDS011;10032;51.386;12.516;2024-01-06T12:28:21;14.40;;;9.47;;
19747;SDS011;10032;51.386;12.516;2024-01-06T12:30:47;12.50;;;8.50;;
19747;SDS011;10032;51.386;12.516;2024-01-06T12:33:12;11.90;;;7.13;;
19747;SDS011;10032;51.386;12.516;2024-01-06T12:35:39;12.87;;;9.17;;
19747;SDS011;10032;51.386;12.516;2024-01-06T12:38:04;13.10;;;8.30;;
19747;SDS011;10032;51.386;12.516;2024-01-06T12:40:32;13.30;;;8.10;;
19747;SDS011;10032;51.386;12.516;2024-01-06T12:42:57;12.80;;;8.07;;
19747;SDS011;10032;51.386;12.516;2024-01-06T12:45:23;14.27;;;8.90;;
19747;SDS011;10032;51.386;12.516;2024-01-06T12:47:48;15.27;;;9.67;;
19747;SDS011;10032;51.386;12.516;2024-01-06T12:50:14;15.13;;;8.13;;
19747;SDS011;10032;51.386;12.516;2024-01-06T12:52:39;15.23;;;9.40;;
19747;SDS011;10032;51.386;12.516;2024-01-06T12:55:06;15.57;;;8.97;;
19747;SDS011;10032;51.386;12.516;2024-01-06T12:57:31;15.80;;;9.37;;
19747;SDS011;10032;51.386;12.516;2024-01-06T12:59:57;13.73;;;8.37;;
19747;SDS011;10032;51.386;12.516;2024-01-06T13:02:23;16.93;;;8.73;;
19747;SDS011;10032;51.386;12.516;2024-01-06T13:04:48;16.60;;;10.80;;
19747;SDS011;10032;51.386;12.516;2024-01-06T13:07:13;13.83;;;8.10;;
19747;SDS011;10032;51.386;12.516;2024-01-06T13:09:39;15.03;;;10.27;;
19747;SDS011;10032;51.386;12.516;2024-01-06T13:12:05;17.07;;;9.83;;
19747;SDS011;10032;51.386;12.516;2024-01-06T13:14:31;14.83;;;9.47;;
19747;SDS011;10032;51.386;12.516;2024-01-06T13:16:56;13.50;;;9.10;;
19747;SDS011;10032;51.386;12.516;2024-01-06T13:19:22;17.17;;;9.70;;
19747;SDS011;10032;51.386;12.516;2024-01-06T13:21:48;14.33;;;8.67;;
19747;SDS011;10032;51.386;12.516;2024-01-06T13:24:13;13.10;;;8.07;;
19747;SDS011;10032;51.386;12.516;2024-01-06T13:26:39;13.97;;;10.03;;
19747;SDS011;10032;51.386;12.516;2024-01-06T13:29:04;20.17;;;9.87;;
19747;SDS011;10032;51.386;12.516;2024-01-06T13:31:30;18.90;;;10.60;;
19747;SDS011;10032;51.386;12.516;2024-01-06T13:33:56;21.80;;;11.67;;
19747;SDS011;10032;51.386;12.516;2024-01-06T13:36:21;19.50;;;12.00;;
19747;SDS011;10032;51.386;12.516;2024-01-06T13:38:47;18.43;;;9.67;;
19747;SDS011;10032;51.386;12.516;2024-01-06T13:41:13;20.60;;;10.90;;
19747;SDS011;10032;51.386;12.516;2024-01-06T13:43:39;21.07;;;11.07;;
19747;SDS011;10032;51.386;12.516;2024-01-06T13:46:04;20.80;;;12.20;;
19747;SDS011;10032;51.386;12.516;2024-01-06T13:48:30;20.70;;;10.30;;
19747;SDS011;10032;51.386;12.516;2024-01-06T13:50:55;18.17;;;11.57;;
19747;SDS011;10032;51.386;12.516;2024-01-06T13:53:22;25.53;;;11.87;;
19747;SDS011;10032;51.386;12.516;2024-01-06T13:55:47;23.27;;;11.80;;
19747;SDS011;10032;51.386;12.516;2024-01-06T13:58:13;17.03;;;10.33;;
19747;SDS011;10032;51.386;12.516;2024-01-06T14:00:38;19.77;;;11.27;;
19747;SDS011;10032;51.386;12.516;2024-01-06T14:03:04;20.63;;;12.03;;
19747;SDS011;10032;51.386;12.516;2024-01-06T14:05:31;23.47;;;12.70;;
19747;SDS011;10032;51.386;12.516;2024-01-06T14:07:58;23.07;;;12.33;;
19747;SDS011;10032;51.386;12.516;2024-01-06T14:10:23;22.27;;;12.37;;
19747;SDS011;10032;51.386;12.516;2024-01-06T14:12:48;25.93;;;13.70;;
19747;SDS011;10032;51.386;12.516;2024-01-06T14:15:14;22.87;;;11.33;;
19747;SDS011;10032;51.386;12.516;2024-01-06T14:17:39;24.80;;;13.10;;
19747;SDS011;10032;51.386;12.516;2024-01-06T14:20:06;32.50;;;13.07;;
19747;SDS011;10032;51.386;12.516;2024-01-06T14:22:34;24.37;;;12.80;;
19747;SDS011;10032;51.386;12.516;2024-01-06T14:24:59;27.47;;;13.37;;
19747;SDS011;10032;51.386;12.516;2024-01-06T14:27:25;24.30;;;13.70;;
19747;SDS011;10032;51.386;12.516;2024-01-06T14:29:51;28.17;;;14.90;;